Pagrindinis puslapis
METAR-TAF:

METAR-TAF

Oro uostai :

Magdalena, Bolivija

platuma: 13-20S, ilguma: 064-07W, Aukštis: 140 m

Dabartinis oras

Ataskaita buvo paskelbta 52 minutes, ne 15:00 UTC
Vėjas 4 kt iš Šiaurės Vakarų
Temperatūra 32°C
Drėgmė 59%
Slėgis 1015 hPa
Matomumas 10 km arba daugiau
Mažai debesys ne aukštis 2000 ft

METAR: SLMG 251500Z 32004KT 9999 FEW020 32/23 Q1015

Laikas: 11:52 (15:52 UTC)


TAF: trūkstamas

Orai ataskaitas ir orų prognozės (METAR, TAF).

turimą stotys yra geltonos ir raudonos taškus žemėlapyje.

Perkelti pele per norėdami pamatyti stoties vardą.

Tada spustelėkite, norėdami matyti oro stebėjimo ir prognozės.

Norėdami pakeisti žemėlapį: spustelėkite ant žalios mygtukų su juodo kryžiaus žemyn,; žalią mygtuką su brūkšneliu, jei norite nutolinti; arba žalių rodyklių gretimoms žemėlapius.


METAR-TAF: